Time;durP1;ratioP1;P1;durP2;ratioP2;P2;SDS_P1;SDS_P2;PMS_P1;PMS_P2;Temp;Humidity;BMP_temperature;BMP_pressure;BME280_temperature;BME280_humidity;BME280_pressure;Samples;Min_cycle;Max_cycle;Signal;HPM_P1;HPM_P2
2021/07/23 00:01:35;;;;;;;10.13;6.66;;;;;;;16.00;84.42;99501.78;2024095;80;20137;-84
2021/07/23 00:04:38;;;;;;;10.69;6.56;;;;;;;15.98;84.43;99495.72;2021392;80;20216;-84
2021/07/23 00:07:41;;;;;;;9.24;6.69;;;;;;;15.94;84.67;99494.91;2022671;80;20192;-83
2021/07/23 00:10:45;;;;;;;9.16;6.29;;;;;;;15.88;84.55;99495.06;2026515;80;20202;-84
2021/07/23 00:13:48;;;;;;;9.07;7.01;;;;;;;15.86;84.62;99496.03;2019911;80;20278;-83
2021/07/23 00:16:51;;;;;;;7.29;6.55;;;;;;;15.87;84.73;99493.34;2025270;80;20164;-85
2021/07/23 00:19:54;;;;;;;11.41;7.13;;;;;;;15.84;84.96;99489.97;2025804;80;20173;-85
2021/07/23 00:22:57;;;;;;;11.98;7.53;;;;;;;15.83;84.74;99491.72;2024613;80;20217;-85
2021/07/23 00:26:00;;;;;;;10.63;7.06;;;;;;;15.82;84.68;99497.00;2020743;80;20203;-85
2021/07/23 00:29:03;;;;;;;9.70;7.05;;;;;;;15.78;84.68;99485.72;2019569;80;20137;-86
2021/07/23 00:32:06;;;;;;;9.68;7.54;;;;;;;15.75;84.57;99491.03;2025294;78;132221;-86
2021/07/23 00:35:10;;;;;;;10.98;7.10;;;;;;;15.73;84.73;99491.97;2022790;80;20183;-85
2021/07/23 00:38:12;;;;;;;8.96;6.80;;;;;;;15.71;85.03;99489.38;2025584;80;20173;-84
2021/07/23 00:41:16;;;;;;;8.10;6.69;;;;;;;15.70;85.64;99490.28;2021533;80;20165;-85
2021/07/23 00:44:20;;;;;;;7.80;6.79;;;;;;;15.70;86.10;99496.38;2025405;80;20149;-84
2021/07/23 00:47:22;;;;;;;12.34;6.79;;;;;;;15.68;86.50;99487.69;2021118;77;205401;-86
2021/07/23 00:50:25;;;;;;;8.55;6.63;;;;;;;15.74;86.27;99488.44;2020444;80;20167;-86
2021/07/23 00:53:28;;;;;;;8.75;6.14;;;;;;;15.74;86.25;99476.22;2024819;80;20222;-86
2021/07/23 00:56:31;;;;;;;12.63;7.29;;;;;;;15.75;86.10;99487.53;2022062;80;20187;-87
2021/07/23 00:59:34;;;;;;;8.96;6.20;;;;;;;15.73;86.22;99482.34;2025249;80;20228;-86
2021/07/23 01:02:38;;;;;;;11.24;6.40;;;;;;;15.71;86.54;99485.00;2020822;78;179779;-86
2021/07/23 01:05:42;;;;;;;6.70;5.93;;;;;;;15.72;86.50;99478.00;2023495;70;20268;-86
2021/07/23 01:08:46;;;;;;;8.24;7.03;;;;;;;15.71;86.30;99478.91;2026330;80;20276;-85
2021/07/23 01:11:49;;;;;;;7.60;6.59;;;;;;;15.69;86.08;99478.94;2032594;80;20164;-84
2021/07/23 01:14:52;;;;;;;9.16;6.19;;;;;;;15.68;85.88;99479.84;2029142;80;20161;-85
2021/07/23 01:21:26;;;;;;;7.84;7.00;;;;;;;15.61;85.61;99467.78;2051605;69;20217;-84
2021/07/23 01:24:29;;;;;;;8.90;6.68;;;;;;;15.55;85.43;99473.13;2028785;80;20173;-84
2021/07/23 01:27:36;;;;;;;8.38;7.06;;;;;;;15.51;85.50;99466.25;2025643;80;20221;-86
2021/07/23 01:30:40;;;;;;;10.29;7.03;;;;;;;15.46;85.79;99462.91;2028837;80;20124;-84
2021/07/23 01:33:43;;;;;;;10.94;7.03;;;;;;;15.43;86.06;99466.41;2030620;78;176117;-87
2021/07/23 01:36:46;;;;;;;7.99;7.16;;;;;;;15.42;86.17;99463.84;2025850;80;20260;-85
2021/07/23 01:39:50;;;;;;;11.19;7.78;;;;;;;15.43;86.33;99463.81;2028921;80;20164;-84
2021/07/23 01:42:54;;;;;;;9.44;7.35;;;;;;;15.39;86.58;99463.91;2036115;80;20200;-85
2021/07/23 01:45:59;;;;;;;10.01;7.70;;;;;;;15.31;86.84;99464.09;2032220;80;20125;-87
2021/07/23 01:49:02;;;;;;;12.11;8.13;;;;;;;15.30;86.79;99457.16;2024655;80;20132;-84
2021/07/23 01:52:05;;;;;;;11.30;8.56;;;;;;;15.32;86.65;99459.72;2031573;80;20184;-85
2021/07/23 01:55:08;;;;;;;12.86;8.66;;;;;;;15.31;86.60;99453.63;2028195;80;20209;-85
2021/07/23 01:58:12;;;;;;;12.01;8.63;;;;;;;15.34;86.66;99450.94;2030040;80;20190;-87
2021/07/23 02:01:15;;;;;;;14.57;9.36;;;;;;;15.33;87.03;99457.06;2026178;80;20172;-85
2021/07/23 02:07:43;;;;;;;13.01;7.95;;;;;;;15.29;87.30;99447.59;2090920;69;20257;-85
2021/07/23 02:10:46;;;;;;;10.36;8.18;;;;;;;15.28;87.38;99452.84;2038637;80;20159;-85
2021/07/23 02:13:49;;;;;;;12.96;8.77;;;;;;;15.28;87.14;99447.63;2047043;69;20233;-85
2021/07/23 02:16:52;;;;;;;11.15;8.24;;;;;;;15.25;87.09;99445.91;2038596;80;20131;-86
2021/07/23 02:19:54;;;;;;;10.94;7.90;;;;;;;15.24;86.81;99448.56;2036823;80;20214;-85
2021/07/23 02:22:57;;;;;;;11.84;7.68;;;;;;;15.21;86.80;99439.03;2038977;80;20236;-85
2021/07/23 02:26:00;;;;;;;10.52;8.19;;;;;;;15.16;87.10;99443.50;2035425;80;20210;-85
2021/07/23 02:29:03;;;;;;;11.99;7.97;;;;;;;15.11;87.19;99437.53;2041769;80;20257;-85
2021/07/23 02:32:06;;;;;;;9.10;7.44;;;;;;;15.05;87.17;99443.75;2044708;77;224914;-85
2021/07/23 02:38:43;;;;;;;10.88;7.97;;;;;;;15.00;86.96;99436.91;2039958;69;20196;-85
2021/07/23 02:41:46;;;;;;;9.54;7.15;;;;;;;14.94;87.14;99435.28;2037700;80;20348;-85
2021/07/23 02:44:49;;;;;;;10.40;7.63;;;;;;;14.93;87.13;99433.56;2036912;80;20179;-85
2021/07/23 02:47:52;;;;;;;10.61;7.39;;;;;;;14.92;87.12;99441.44;2039435;77;116992;-84
2021/07/23 02:50:58;;;;;;;10.19;6.64;;;;;;;14.88;87.27;99438.00;2041975;80;20220;-86
2021/07/23 02:54:01;;;;;;;8.39;7.00;;;;;;;14.85;87.37;99426.75;2049276;80;20201;-86
2021/07/23 02:57:03;;;;;;;9.48;6.95;;;;;;;14.80;87.40;99426.88;2041037;80;20167;-85
2021/07/23 03:00:07;;;;;;;8.36;6.57;;;;;;;14.76;87.28;99428.69;2035063;80;20210;-87
2021/07/23 03:03:10;;;;;;;9.02;6.69;;;;;;;14.71;87.33;99422.66;2042094;80;20175;-85
2021/07/23 03:06:13;;;;;;;7.01;6.28;;;;;;;14.70;87.45;99428.78;2039266;80;20228;-85
2021/07/23 03:09:16;;;;;;;9.31;6.19;;;;;;;14.67;87.42;99428.84;2040413;80;20180;-86
2021/07/23 03:12:18;;;;;;;7.90;6.16;;;;;;;14.63;87.39;99424.59;2031722;80;20188;-87
2021/07/23 03:15:21;;;;;;;8.76;6.36;;;;;;;14.61;87.32;99429.00;2037790;80;20172;-84
2021/07/23 03:18:24;;;;;;;7.64;5.99;;;;;;;14.57;87.04;99422.13;2042688;80;20163;-86
2021/07/23 03:21:27;;;;;;;9.21;6.76;;;;;;;14.52;87.09;99424.78;2035584;80;20317;-86
2021/07/23 03:24:32;;;;;;;12.14;6.59;;;;;;;14.50;87.17;99418.75;2038486;80;20183;-85
2021/07/23 03:27:36;;;;;;;10.31;6.85;;;;;;;14.47;87.08;99418.81;2036728;80;20187;-85
2021/07/23 03:30:38;;;;;;;11.66;6.50;;;;;;;14.42;87.20;99417.16;2041556;80;20187;-85
2021/07/23 03:33:41;;;;;;;9.32;6.07;;;;;;;14.37;87.26;99414.63;2040355;80;20193;-85
2021/07/23 03:36:44;;;;;;;11.14;6.45;;;;;;;14.36;87.52;99414.63;2035000;80;20179;-85
2021/07/23 03:39:48;;;;;;;9.32;6.24;;;;;;;14.35;87.51;99413.78;2037218;80;20407;-85
2021/07/23 03:42:50;;;;;;;7.11;6.18;;;;;;;14.31;87.54;99409.50;2036430;80;20131;-85
2021/07/23 03:45:54;;;;;;;6.84;6.20;;;;;;;14.30;87.42;99405.19;2037706;77;224530;-86
2021/07/23 03:48:57;;;;;;;8.70;5.78;;;;;;;14.25;87.27;99407.03;2034970;80;20259;-85
2021/07/23 03:52:00;;;;;;;8.75;5.50;;;;;;;14.22;87.32;99407.09;2040210;80;20163;-86
2021/07/23 03:55:03;;;;;;;6.90;5.85;;;;;;;14.18;87.29;99408.00;2042185;80;20196;-86
2021/07/23 03:58:06;;;;;;;8.46;5.81;;;;;;;14.17;87.12;99411.53;2039841;80;20278;-86
2021/07/23 04:01:09;;;;;;;6.46;5.66;;;;;;;14.16;87.25;99409.81;2037533;80;20188;-86
2021/07/23 04:04:12;;;;;;;8.61;6.40;;;;;;;14.15;87.22;99405.47;2039147;80;20163;-85
2021/07/23 04:07:15;;;;;;;6.03;5.45;;;;;;;14.12;87.12;99401.16;2042220;80;20167;-85
2021/07/23 04:10:19;;;;;;;11.16;6.00;;;;;;;14.12;87.19;99408.13;2041280;80;20159;-87
2021/07/23 04:13:22;;;;;;;6.65;5.72;;;;;;;14.10;87.22;99410.78;2039967;80;20168;-89
2021/07/23 04:16:25;;;;;;;6.43;5.78;;;;;;;14.09;87.31;99403.84;2037815;80;20208;-88
2021/07/23 04:19:28;;;;;;;16.90;6.13;;;;;;;14.09;87.24;99397.75;2040323;80;20320;-86
2021/07/23 04:22:33;;;;;;;30.79;6.88;;;;;;;14.05;87.32;99396.09;2043164;80;20123;-86
2021/07/23 04:25:38;;;;;;;12.50;6.50;;;;;;;14.07;87.21;99403.00;2040320;80;20173;-86
2021/07/23 04:31:51;;;;;;;11.63;5.88;;;;;;;14.10;87.20;99409.94;2232470;69;20250;-86
2021/07/23 04:50:04;;;;;;;8.36;5.47;;;;;;;14.25;87.68;99429.69;2203946;70;20167;-86
2021/07/23 04:53:07;;;;;;;8.11;5.96;;;;;;;14.37;87.89;99416.41;2003897;81;20191;-85
2021/07/23 04:56:10;;;;;;;6.01;5.32;;;;;;;14.48;87.46;99425.75;2001305;81;20172;-87
2021/07/23 04:59:13;;;;;;;8.41;5.44;;;;;;;14.60;87.02;99419.44;2013139;81;20136;-86
2021/07/23 05:02:15;;;;;;;7.00;5.78;;;;;;;14.70;86.67;99425.31;2003072;78;136438;-86
2021/07/23 05:05:21;;;;;;;9.43;5.97;;;;;;;14.80;86.44;99424.25;2014764;81;20160;-88
2021/07/23 05:08:25;;;;;;;6.96;6.26;;;;;;;14.95;86.18;99421.31;1999342;82;20238;-88
2021/07/23 05:11:28;;;;;;;8.99;6.04;;;;;;;15.05;85.95;99421.94;2006884;82;20137;-87
2021/07/23 05:34:59;;;;;;;9.30;6.39;;;;;;;17.00;78.16;99422.16;2008998;71;20278;-84
2021/07/23 05:38:02;;;;;;;7.75;5.78;;;;;;;17.15;78.02;99426.94;1999323;81;20140;-84
2021/07/23 05:41:09;;;;;;;7.22;5.76;;;;;;;17.30;77.66;99424.78;1995472;81;20195;-82
2021/07/23 05:44:11;;;;;;;6.19;5.54;;;;;;;17.52;76.78;99421.41;1994711;81;20188;-81
2021/07/23 05:47:14;;;;;;;8.68;5.51;;;;;;;17.88;75.83;99420.28;1995645;79;23647;-81
2021/07/23 05:50:17;;;;;;;6.39;5.71;;;;;;;18.30;73.90;99413.53;1992658;81;20228;-81
2021/07/23 05:53:21;;;;;;;6.15;5.32;;;;;;;18.68;72.46;99416.59;1993379;81;20168;-81
2021/07/23 05:56:24;;;;;;;5.71;5.21;;;;;;;19.00;71.50;99420.63;1988983;81;20183;-81
2021/07/23 05:59:27;;;;;;;6.24;5.65;;;;;;;19.22;70.49;99420.69;1991915;81;20203;-80
2021/07/23 06:02:30;;;;;;;8.66;6.06;;;;;;;19.33;70.85;99413.22;1990970;78;21209;-80
2021/07/23 06:05:33;;;;;;;7.06;5.84;;;;;;;19.51;70.36;99424.78;1990349;81;20175;-79
2021/07/23 06:08:36;;;;;;;9.16;5.95;;;;;;;19.75;69.07;99415.03;1992590;81;20191;-82
2021/07/23 06:11:39;;;;;;;7.49;5.41;;;;;;;20.08;68.23;99410.13;1995592;81;20172;-82
2021/07/23 06:14:42;;;;;;;9.56;5.90;;;;;;;20.35;67.05;99413.38;1994614;81;20171;-82
2021/07/23 06:17:44;;;;;;;11.38;6.72;;;;;;;20.66;66.34;99415.53;1998284;79;22952;-82
2021/07/23 06:20:47;;;;;;;10.91;6.72;;;;;;;20.94;64.83;99404.56;1995429;81;20229;-82
2021/07/23 06:23:50;;;;;;;10.93;7.26;;;;;;;21.22;63.94;99410.28;1996513;81;20172;-81
2021/07/23 06:26:53;;;;;;;14.41;6.36;;;;;;;21.51;63.39;99410.66;1996340;81;20183;-82
2021/07/23 06:29:56;;;;;;;10.59;6.69;;;;;;;21.74;62.31;99407.78;1996579;81;20208;-82
2021/07/23 06:32:58;;;;;;;15.46;7.19;;;;;;;21.98;61.49;99406.53;1994242;78;21337;-82
2021/07/23 06:36:01;;;;;;;14.13;7.30;;;;;;;22.25;60.92;99411.34;1994148;81;20175;-82
2021/07/23 06:39:03;;;;;;;13.71;7.50;;;;;;;22.48;60.40;99410.19;1993324;81;20200;-81
2021/07/23 06:42:07;;;;;;;11.55;7.38;;;;;;;22.69;59.20;99406.38;1993787;81;20253;-81
2021/07/23 06:45:10;;;;;;;14.93;7.84;;;;;;;22.85;58.49;99401.16;1993914;81;20187;-82
2021/07/23 06:48:12;;;;;;;9.43;5.86;;;;;;;23.06;57.55;99399.09;1992704;78;24530;-78
2021/07/23 06:51:15;;;;;;;11.54;5.60;;;;;;;23.25;56.21;99404.22;1990480;81;20201;-79
2021/07/23 06:54:17;;;;;;;14.74;6.28;;;;;;;23.32;55.16;99395.84;1993050;81;20199;-80
2021/07/23 06:57:21;;;;;;;16.96;6.78;;;;;;;23.57;55.36;99399.78;1993948;81;20168;-80
2021/07/23 07:00:23;;;;;;;9.41;6.04;;;;;;;23.78;54.70;99402.06;1993280;79;22548;-80
2021/07/23 07:03:25;;;;;;;16.00;7.56;;;;;;;23.99;53.88;99407.88;1987984;81;20834;-79
2021/07/23 07:06:28;;;;;;;15.77;7.47;;;;;;;24.11;53.27;99399.22;1986325;81;20164;-80
2021/07/23 07:09:30;;;;;;;12.23;6.49;;;;;;;24.20;53.06;99395.13;1987081;81;20271;-78
2021/07/23 07:12:33;;;;;;;14.09;7.38;;;;;;;24.30;52.92;99395.47;1985185;81;20214;-79
2021/07/23 07:15:36;;;;;;;11.40;6.29;;;;;;;24.54;52.24;99401.09;1986470;78;20879;-79
2021/07/23 07:18:38;;;;;;;12.80;5.71;;;;;;;24.72;51.43;99399.94;1991019;81;20201;-78
2021/07/23 07:21:47;;;;;;;10.24;4.93;;;;;;;24.94;50.55;99400.28;1990243;81;20383;-79
2021/07/23 07:24:50;;;;;;;11.71;4.78;;;;;;;25.13;49.95;99400.00;1989696;81;20195;-78
2021/07/23 07:27:53;;;;;;;6.60;4.40;;;;;;;25.14;49.78;99400.91;1990190;81;20239;-78
2021/07/23 07:30:56;;;;;;;4.54;3.96;;;;;;;25.22;48.97;99403.91;1987863;79;20734;-79
2021/07/23 07:33:58;;;;;;;4.59;4.16;;;;;;;25.17;48.98;99398.88;1984360;81;20188;-75
2021/07/23 07:37:01;;;;;;;8.65;4.61;;;;;;;25.28;48.70;99391.06;1985943;81;20184;-78
2021/07/23 07:40:06;;;;;;;7.30;4.28;;;;;;;25.50;48.77;99392.34;1983916;81;20235;-78
2021/07/23 07:43:08;;;;;;;8.59;3.58;;;;;;;25.69;47.97;99390.19;1984462;81;20228;-78
2021/07/23 07:46:11;;;;;;;5.71;3.58;;;;;;;25.77;46.90;99387.00;1985483;78;20209;-79
2021/07/23 07:49:16;;;;;;;6.49;3.58;;;;;;;25.91;46.72;99389.59;1989141;81;20201;-78
2021/07/23 07:52:19;;;;;;;3.96;3.61;;;;;;;26.05;47.15;99386.88;1994991;81;20128;-78
2021/07/23 07:55:22;;;;;;;7.29;3.53;;;;;;;26.22;46.43;99392.84;1992394;81;20196;-78
2021/07/23 07:58:25;;;;;;;7.95;3.47;;;;;;;26.34;45.56;99386.66;1991877;81;20168;-78
2021/07/23 08:01:27;;;;;;;5.03;3.70;;;;;;;26.38;45.57;99391.69;1986592;79;29703;-78
2021/07/23 08:04:30;;;;;;;4.97;3.54;;;;;;;26.41;45.00;99382.66;1983437;81;20228;-77
2021/07/23 08:07:34;;;;;;;5.21;3.39;;;;;;;26.38;44.58;99380.19;1984104;81;20247;-79
2021/07/23 08:10:38;;;;;;;4.20;3.25;;;;;;;26.42;44.62;99374.56;1984384;81;20764;-77
2021/07/23 08:13:40;;;;;;;7.24;3.65;;;;;;;26.52;44.61;99371.25;1984441;81;20572;-79
2021/07/23 08:16:43;;;;;;;5.96;3.41;;;;;;;26.61;44.85;99360.81;1985503;78;20221;-77
2021/07/23 08:19:46;;;;;;;5.76;3.21;;;;;;;26.75;44.19;99367.78;1988201;81;20183;-77
2021/07/23 08:22:48;;;;;;;4.74;3.65;;;;;;;26.98;44.03;99360.81;1990383;81;20184;-77
2021/07/23 08:25:51;;;;;;;4.57;3.24;;;;;;;27.17;43.06;99353.22;1987444;81;20180;-77
2021/07/23 08:28:53;;;;;;;7.41;3.47;;;;;;;27.31;42.78;99355.72;1987459;81;20757;-77
2021/07/23 08:32:05;;;;;;;4.94;3.69;;;;;;;27.42;42.14;99357.59;1983823;79;20280;-77
2021/07/23 08:35:07;;;;;;;4.61;3.45;;;;;;;27.49;41.37;99350.00;1982147;81;20212;-77
2021/07/23 08:38:10;;;;;;;10.05;3.61;;;;;;;27.56;41.75;99348.56;1982704;81;21176;-78
2021/07/23 08:41:12;;;;;;;5.50;3.21;;;;;;;27.62;41.25;99351.59;1981730;81;20651;-77
2021/07/23 08:44:16;;;;;;;5.21;3.60;;;;;;;27.64;41.17;99344.38;1981968;82;20177;-79
2021/07/23 08:47:19;;;;;;;4.41;3.97;;;;;;;27.82;41.09;99346.59;1987438;79;22597;-78
2021/07/23 08:50:24;;;;;;;6.86;3.80;;;;;;;27.88;40.79;99347.00;1986477;81;20230;-79
2021/07/23 08:53:26;;;;;;;8.85;3.70;;;;;;;27.90;40.91;99353.06;1986698;81;20201;-78
2021/07/23 08:56:29;;;;;;;3.51;3.20;;;;;;;27.98;40.41;99344.47;1987253;81;20183;-78
2021/07/23 08:59:31;;;;;;;5.41;3.60;;;;;;;28.20;40.53;99346.34;1986775;81;20967;-78
2021/07/23 09:02:53;;;;;;;5.14;3.79;;;;;;;28.29;39.92;99348.31;1981799;79;22160;-77
2021/07/23 09:05:58;;;;;;;6.39;3.40;;;;;;;28.32;41.01;99347.22;1981189;82;20946;-78
2021/07/23 09:09:04;;;;;;;3.92;3.63;;;;;;;28.34;39.27;99351.47;1981801;82;20623;-79
2021/07/23 09:12:09;;;;;;;6.70;3.71;;;;;;;28.38;39.54;99344.09;1981948;81;20804;-80
2021/07/23 09:15:22;;;;;;;6.01;4.13;;;;;;;28.44;38.95;99346.28;1985391;81;20192;-78
2021/07/23 09:18:28;;;;;;;5.21;3.70;;;;;;;28.57;38.87;99347.88;1986769;81;20733;-78
2021/07/23 09:21:34;;;;;;;6.40;3.96;;;;;;;28.55;38.79;99343.63;1986665;81;20215;-78
2021/07/23 09:24:52;;;;;;;4.43;4.03;;;;;;;28.63;38.96;99341.16;1986865;81;20196;-78
2021/07/23 09:27:55;;;;;;;4.69;3.55;;;;;;;28.84;38.60;99334.09;1986818;81;20620;-77
2021/07/23 09:31:00;;;;;;;4.11;3.78;;;;;;;28.95;38.10;99340.44;1984020;79;21182;-80
2021/07/23 09:34:04;;;;;;;4.41;3.80;;;;;;;29.01;37.63;99324.75;1982214;82;20856;-81
2021/07/23 09:37:08;;;;;;;4.25;3.85;;;;;;;29.09;37.85;99310.75;1981973;81;20184;-80
2021/07/23 09:40:53;;;;;;;5.41;4.00;;;;;;;29.14;37.97;99312.06;1982000;81;20318;-80
2021/07/23 09:44:08;;;;;;;6.78;4.30;;;;;;;29.24;36.75;99301.44;1981154;82;20168;-80
2021/07/23 09:47:23;;;;;;;5.22;4.56;;;;;;;29.37;37.01;99295.94;1980783;79;22130;-80
2021/07/23 09:50:27;;;;;;;4.71;4.40;;;;;;;29.47;35.80;99289.72;1981528;82;20226;-80
2021/07/23 09:53:30;;;;;;;5.29;4.30;;;;;;;29.51;36.04;99278.75;1981835;82;20709;-79
2021/07/23 09:56:33;;;;;;;4.57;4.03;;;;;;;29.51;35.78;99276.09;1982116;82;20225;-81
2021/07/23 09:59:40;;;;;;;5.40;4.78;;;;;;;29.55;36.48;99277.50;1981047;82;20986;-79
2021/07/23 10:02:46;;;;;;;4.28;3.80;;;;;;;29.56;36.62;99268.50;1988280;78;36497;-84
2021/07/23 10:06:05;;;;;;;6.51;4.06;;;;;;;29.66;36.20;99264.94;1986607;81;20809;-81
2021/07/23 10:09:09;;;;;;;4.54;4.14;;;;;;;29.69;35.74;99262.00;1986774;81;20207;-81
2021/07/23 10:12:16;;;;;;;5.46;4.20;;;;;;;29.57;35.58;99260.34;1987028;81;20183;-81
2021/07/23 10:15:19;;;;;;;3.87;3.57;;;;;;;29.52;35.90;99261.72;1985262;81;20754;-80
2021/07/23 10:18:26;;;;;;;4.61;4.25;;;;;;;29.61;36.50;99261.78;1981327;80;20864;-80
2021/07/23 10:21:28;;;;;;;6.19;4.25;;;;;;;29.67;35.12;99258.59;1981913;82;20192;-80
2021/07/23 10:24:35;;;;;;;5.32;4.32;;;;;;;29.71;35.29;99254.66;1982086;82;20180;-81
2021/07/23 10:27:40;;;;;;;4.89;4.59;;;;;;;29.80;34.68;99250.34;1981790;82;20531;-79
2021/07/23 10:30:43;;;;;;;4.66;4.07;;;;;;;29.71;33.58;99251.16;1982329;79;20310;-81
2021/07/23 10:33:53;;;;;;;4.66;4.26;;;;;;;29.68;33.85;99241.56;1987380;81;20195;-80
2021/07/23 10:36:56;;;;;;;4.81;4.41;;;;;;;29.74;35.14;99237.50;1987556;81;20210;-81
2021/07/23 10:40:07;;;;;;;4.99;4.59;;;;;;;30.01;35.98;99234.28;1986437;81;20274;-77
2021/07/23 10:43:33;;;;;;;4.19;3.78;;;;;;;30.07;34.33;99228.41;1987238;81;20184;-81
2021/07/23 10:46:47;;;;;;;4.95;4.49;;;;;;;30.14;34.51;99218.84;1982928;81;24042;-76
2021/07/23 10:49:50;;;;;;;4.43;4.01;;;;;;;30.16;33.66;99230.25;1981934;81;20263;-77
2021/07/23 10:52:53;;;;;;;4.44;4.07;;;;;;;30.20;33.65;99220.16;1981654;81;20634;-77
2021/07/23 10:55:56;;;;;;;4.49;4.16;;;;;;;30.29;33.44;99216.63;1981344;81;20305;-80
2021/07/23 10:58:58;;;;;;;4.21;3.81;;;;;;;30.29;33.11;99208.59;1982008;81;20226;-79
2021/07/23 11:02:01;;;;;;;4.46;4.13;;;;;;;30.20;33.21;99215.63;1984129;78;21397;-81
2021/07/23 11:05:08;;;;;;;4.56;4.15;;;;;;;30.27;33.17;99210.56;1988260;81;20205;-80
2021/07/23 11:08:15;;;;;;;5.36;3.78;;;;;;;30.32;33.78;99205.63;1987512;81;20188;-78
2021/07/23 11:11:20;;;;;;;8.65;4.79;;;;;;;30.45;33.16;99214.28;1986470;81;20199;-84
2021/07/23 11:14:23;;;;;;;13.34;6.00;;;;;;;30.35;32.76;99200.88;1987549;81;20212;-82
2021/07/23 11:17:30;;;;;;;5.29;4.68;;;;;;;30.46;33.58;99205.25;1984029;78;24208;-81
2021/07/23 11:20:34;;;;;;;5.61;4.29;;;;;;;30.58;32.84;99193.44;1982710;81;20226;-85
2021/07/23 11:23:37;;;;;;;5.25;4.74;;;;;;;30.62;32.70;99191.38;1982820;81;20637;-87
2021/07/23 11:27:00;;;;;;;4.88;4.20;;;;;;;30.70;32.51;99182.63;1982091;81;20961;-88
2021/07/23 11:30:16;;;;;;;5.97;4.30;;;;;;;30.77;32.68;99179.25;1982356;81;20222;-86
2021/07/23 11:33:28;;;;;;;7.32;4.28;;;;;;;30.94;32.48;99173.19;1986592;78;21068;-82
2021/07/23 11:36:35;;;;;;;4.56;4.16;;;;;;;30.93;31.99;99170.66;1986357;81;20661;-82
2021/07/23 11:39:54;;;;;;;5.00;3.63;;;;;;;30.74;31.26;99166.13;1986140;81;20192;-82
2021/07/23 11:42:59;;;;;;;5.01;4.14;;;;;;;30.75;32.08;99165.16;1986930;81;20259;-86
2021/07/23 11:46:11;;;;;;;4.70;4.30;;;;;;;30.84;32.01;99174.16;1984128;78;20188;-85
2021/07/23 11:49:14;;;;;;;4.49;4.10;;;;;;;30.88;31.08;99160.34;1982151;81;20907;-85
2021/07/23 11:52:20;;;;;;;4.72;3.88;;;;;;;30.87;31.73;99163.16;1981212;81;20164;-78
2021/07/23 11:55:23;;;;;;;5.29;3.92;;;;;;;31.04;32.03;99159.75;1984995;81;20211;-84
2021/07/23 11:58:28;;;;;;;4.40;4.10;;;;;;;31.22;32.24;99152.72;1979943;81;20204;-76
2021/07/23 12:01:38;;;;;;;4.10;3.71;;;;;;;31.28;31.58;99148.63;1983371;78;20730;-83
2021/07/23 12:04:41;;;;;;;4.32;3.92;;;;;;;31.28;31.64;99151.31;1986509;81;20184;-84
2021/07/23 12:07:56;;;;;;;6.84;4.72;;;;;;;31.02;30.88;99142.13;1985839;81;20770;-84
2021/07/23 12:11:00;;;;;;;6.15;4.15;;;;;;;31.02;31.13;99137.59;1986260;81;20269;-82
2021/07/23 12:14:11;;;;;;;4.51;4.10;;;;;;;30.98;31.64;99139.72;1985616;81;20218;-82
2021/07/23 12:17:14;;;;;;;4.22;3.92;;;;;;;30.97;31.62;99132.66;1984217;79;25973;-82
2021/07/23 12:20:27;;;;;;;4.51;4.14;;;;;;;30.95;32.21;99123.06;1981157;81;20216;-83
2021/07/23 12:23:29;;;;;;;5.56;4.64;;;;;;;30.94;32.35;99122.22;1981598;81;20184;-83
2021/07/23 12:26:42;;;;;;;6.31;4.22;;;;;;;31.13;32.42;99117.84;1981290;81;20221;-82
2021/07/23 12:29:45;;;;;;;9.77;5.04;;;;;;;31.23;32.33;99116.00;1981065;82;20804;-81
2021/07/23 12:32:48;;;;;;;4.66;4.24;;;;;;;31.21;31.98;99100.03;1985526;78;20796;-84
2021/07/23 12:35:52;;;;;;;4.29;3.90;;;;;;;31.10;31.28;99097.50;1986363;81;20758;-81
2021/07/23 12:39:03;;;;;;;4.82;4.36;;;;;;;31.24;32.75;99106.97;1986476;81;20762;-81
2021/07/23 12:42:19;;;;;;;5.89;4.30;;;;;;;31.32;32.46;99100.88;1986411;81;20721;-81
2021/07/23 12:45:34;;;;;;;4.91;4.00;;;;;;;31.44;31.92;99095.19;1984637;81;20203;-82
2021/07/23 12:48:36;;;;;;;4.20;3.85;;;;;;;31.21;29.79;99083.09;1979250;81;20647;-82
2021/07/23 12:51:40;;;;;;;6.22;4.15;;;;;;;31.00;31.46;99080.56;1980908;82;20302;-80
2021/07/23 12:54:44;;;;;;;7.38;4.11;;;;;;;31.01;32.07;99070.69;1982084;81;20184;-83
2021/07/23 12:57:47;;;;;;;4.34;3.94;;;;;;;31.06;32.13;99071.97;1980984;81;20246;-83
2021/07/23 13:00:50;;;;;;;4.76;4.36;;;;;;;31.13;32.14;99081.13;1982212;79;20266;-83
2021/07/23 13:03:56;;;;;;;4.47;4.10;;;;;;;31.18;32.43;99070.81;1986088;81;20260;-82
2021/07/23 13:06:59;;;;;;;4.95;4.55;;;;;;;31.27;32.04;99072.66;1985686;81;20187;-82
2021/07/23 13:10:03;;;;;;;4.63;4.22;;;;;;;31.26;31.71;99072.78;1985686;81;20278;-82
2021/07/23 13:13:07;;;;;;;5.34;3.83;;;;;;;31.25;32.17;99084.53;1985990;81;20770;-87
2021/07/23 13:16:11;;;;;;;5.56;4.29;;;;;;;31.28;31.60;99070.81;1983577;81;20805;-87
2021/07/23 13:19:14;;;;;;;6.19;3.92;;;;;;;31.38;32.13;99062.72;1981453;81;20213;-84
2021/07/23 13:22:17;;;;;;;4.26;3.94;;;;;;;31.26;31.13;99059.38;1981417;81;20764;-87
2021/07/23 13:25:19;;;;;;;4.04;3.74;;;;;;;31.20;31.34;99058.09;1980778;81;20180;-84
2021/07/23 13:28:22;;;;;;;6.56;4.16;;;;;;;31.19;31.50;99060.94;1981401;81;20795;-84
2021/07/23 13:31:25;;;;;;;4.45;4.05;;;;;;;31.29;32.24;99055.56;1982236;79;20344;-85
2021/07/23 13:34:27;;;;;;;5.45;4.38;;;;;;;31.33;31.75;99062.31;1986396;81;21246;-85
2021/07/23 13:37:34;;;;;;;4.50;4.10;;;;;;;31.24;31.68;99053.31;1989071;81;20235;-83
2021/07/23 13:40:41;;;;;;;10.05;4.38;;;;;;;31.13;32.64;99051.63;1985482;81;20282;-82
2021/07/23 13:43:43;;;;;;;4.76;4.19;;;;;;;31.16;32.87;99055.84;1986214;81;20876;-81
2021/07/23 13:46:46;;;;;;;3.91;3.61;;;;;;;31.25;32.18;99058.53;1984379;78;20238;-82
2021/07/23 13:49:48;;;;;;;5.15;3.63;;;;;;;31.29;31.01;99040.31;1986504;81;20207;-82
2021/07/23 13:52:52;;;;;;;4.74;3.60;;;;;;;31.28;30.65;99052.03;1985927;81;20572;-88
2021/07/23 13:55:55;;;;;;;4.91;3.53;;;;;;;31.29;31.18;99045.66;1985770;81;20250;-89
2021/07/23 13:59:01;;;;;;;3.65;3.35;;;;;;;31.25;30.25;99034.38;1986129;81;20297;-87
2021/07/23 14:02:03;;;;;;;3.67;3.38;;;;;;;31.13;30.20;99032.00;1981653;79;22926;-87
2021/07/23 14:05:08;;;;;;;4.29;3.54;;;;;;;31.00;30.97;99024.25;1981989;81;20240;-86
2021/07/23 14:08:10;;;;;;;5.03;4.00;;;;;;;31.09;31.38;99030.59;1982049;81;20188;-84
2021/07/23 14:11:13;;;;;;;4.99;4.10;;;;;;;31.06;31.39;99023.69;1982076;81;20164;-86
2021/07/23 14:14:15;;;;;;;5.82;3.86;;;;;;;31.11;31.33;99017.88;1981575;81;20213;-85
2021/07/23 14:17:18;;;;;;;4.18;3.78;;;;;;;31.09;31.72;99015.34;1986915;78;38730;-86
2021/07/23 14:20:21;;;;;;;4.38;3.97;;;;;;;31.12;31.60;99014.19;1987047;81;20209;-86
2021/07/23 14:23:24;;;;;;;3.78;3.28;;;;;;;31.18;31.55;99008.28;1986681;81;20188;-86
2021/07/23 14:26:26;;;;;;;4.36;3.65;;;;;;;31.21;31.24;99003.44;1986600;81;20171;-87
2021/07/23 14:29:29;;;;;;;6.55;3.49;;;;;;;31.34;31.18;99003.13;1986768;81;20286;-86
2021/07/23 14:32:31;;;;;;;4.79;3.80;;;;;;;31.47;32.06;98994.75;1981144;79;20958;-85
2021/07/23 14:35:36;;;;;;;4.18;3.85;;;;;;;31.64;30.88;98996.63;1981622;81;20267;-85
2021/07/23 14:38:40;;;;;;;4.80;3.55;;;;;;;31.56;29.92;98994.69;1981329;81;20180;-86
2021/07/23 14:41:42;;;;;;;4.04;3.71;;;;;;;31.55;30.32;98990.31;1980859;81;20478;-87
2021/07/23 14:44:45;;;;;;;4.47;3.92;;;;;;;31.41;30.40;98988.09;1981678;81;20188;-83
2021/07/23 14:47:47;;;;;;;4.50;4.01;;;;;;;31.13;31.18;98989.06;1986859;78;22033;-87
2021/07/23 14:50:50;;;;;;;3.94;3.58;;;;;;;30.93;31.05;98981.09;1986356;81;20176;-88
2021/07/23 14:53:53;;;;;;;4.06;3.74;;;;;;;30.72;30.94;98984.97;1987506;81;20201;-87
2021/07/23 14:56:55;;;;;;;4.39;3.56;;;;;;;30.47;30.65;98975.66;1987284;81;20233;-87
2021/07/23 14:59:59;;;;;;;7.03;3.45;;;;;;;30.28;30.53;98982.72;1986912;81;20172;-85
2021/07/23 15:03:04;;;;;;;3.67;3.38;;;;;;;30.32;31.90;98975.22;1987248;78;23024;-84
2021/07/23 15:06:07;;;;;;;3.81;3.26;;;;;;;30.45;32.06;98972.28;1987594;81;20211;-88
2021/07/23 15:09:09;;;;;;;6.49;4.00;;;;;;;30.48;32.44;98978.19;1986560;81;20195;-87
2021/07/23 15:12:12;;;;;;;4.29;3.94;;;;;;;30.38;33.21;98977.38;1986040;81;20213;-89
2021/07/23 15:15:15;;;;;;;5.30;3.66;;;;;;;30.33;32.68;98976.91;1985702;81;20964;-86